sensor_id;sensor_type;location;lat;lon;timestamp;P1;durP1;ratioP1;P2;durP2;ratioP2
15412;SDS011;7805;49.554;7.632;2023-04-21T00:00:13;17.27;;;15.17;;
15412;SDS011;7805;49.554;7.632;2023-04-21T00:02:39;17.43;;;14.67;;
15412;SDS011;7805;49.554;7.632;2023-04-21T00:05:06;17.20;;;15.30;;
15412;SDS011;7805;49.554;7.632;2023-04-21T00:07:37;17.83;;;15.00;;
15412;SDS011;7805;49.554;7.632;2023-04-21T00:10:07;21.60;;;16.57;;
15412;SDS011;7805;49.554;7.632;2023-04-21T00:12:33;21.30;;;16.23;;
15412;SDS011;7805;49.554;7.632;2023-04-21T00:14:59;18.27;;;15.20;;
15412;SDS011;7805;49.554;7.632;2023-04-21T00:17:25;20.03;;;16.03;;
15412;SDS011;7805;49.554;7.632;2023-04-21T00:19:50;19.50;;;14.87;;
15412;SDS011;7805;49.554;7.632;2023-04-21T00:22:16;18.80;;;16.37;;
15412;SDS011;7805;49.554;7.632;2023-04-21T00:24:43;21.50;;;16.40;;
15412;SDS011;7805;49.554;7.632;2023-04-21T00:27:08;19.63;;;15.97;;
15412;SDS011;7805;49.554;7.632;2023-04-21T00:29:35;17.87;;;15.20;;
15412;SDS011;7805;49.554;7.632;2023-04-21T00:32:01;19.10;;;15.27;;
15412;SDS011;7805;49.554;7.632;2023-04-21T00:34:27;18.67;;;15.10;;
15412;SDS011;7805;49.554;7.632;2023-04-21T00:36:53;19.13;;;15.90;;
15412;SDS011;7805;49.554;7.632;2023-04-21T00:39:19;16.77;;;14.97;;
15412;SDS011;7805;49.554;7.632;2023-04-21T00:41:44;18.33;;;15.73;;
15412;SDS011;7805;49.554;7.632;2023-04-21T00:44:10;20.60;;;16.63;;
15412;SDS011;7805;49.554;7.632;2023-04-21T00:46:36;17.93;;;15.60;;
15412;SDS011;7805;49.554;7.632;2023-04-21T00:49:03;19.23;;;16.07;;
15412;SDS011;7805;49.554;7.632;2023-04-21T00:51:30;17.37;;;15.40;;
15412;SDS011;7805;49.554;7.632;2023-04-21T00:53:58;20.77;;;16.30;;
15412;SDS011;7805;49.554;7.632;2023-04-21T00:56:25;20.10;;;16.57;;
15412;SDS011;7805;49.554;7.632;2023-04-21T00:58:52;18.93;;;16.23;;
15412;SDS011;7805;49.554;7.632;2023-04-21T01:01:18;17.50;;;15.20;;
15412;SDS011;7805;49.554;7.632;2023-04-21T01:03:43;17.03;;;15.20;;
15412;SDS011;7805;49.554;7.632;2023-04-21T01:06:11;20.93;;;17.13;;
15412;SDS011;7805;49.554;7.632;2023-04-21T01:08:37;19.23;;;16.07;;
15412;SDS011;7805;49.554;7.632;2023-04-21T01:11:12;18.80;;;15.13;;
15412;SDS011;7805;49.554;7.632;2023-04-21T01:13:38;18.93;;;16.30;;
15412;SDS011;7805;49.554;7.632;2023-04-21T01:16:04;16.33;;;14.33;;
15412;SDS011;7805;49.554;7.632;2023-04-21T01:18:31;17.27;;;14.70;;
15412;SDS011;7805;49.554;7.632;2023-04-21T01:20:57;16.73;;;14.93;;
15412;SDS011;7805;49.554;7.632;2023-04-21T01:23:23;15.60;;;13.93;;
15412;SDS011;7805;49.554;7.632;2023-04-21T01:25:49;16.43;;;13.47;;
15412;SDS011;7805;49.554;7.632;2023-04-21T01:28:22;16.63;;;13.83;;
15412;SDS011;7805;49.554;7.632;2023-04-21T01:30:48;16.83;;;13.93;;
15412;SDS011;7805;49.554;7.632;2023-04-21T01:33:14;17.10;;;14.33;;
15412;SDS011;7805;49.554;7.632;2023-04-21T01:35:39;15.30;;;13.63;;
15412;SDS011;7805;49.554;7.632;2023-04-21T01:38:05;19.33;;;14.07;;
15412;SDS011;7805;49.554;7.632;2023-04-21T01:40:31;18.07;;;14.83;;
15412;SDS011;7805;49.554;7.632;2023-04-21T01:42:56;20.67;;;15.83;;
15412;SDS011;7805;49.554;7.632;2023-04-21T01:45:23;16.30;;;14.53;;
15412;SDS011;7805;49.554;7.632;2023-04-21T01:47:49;18.20;;;14.40;;
15412;SDS011;7805;49.554;7.632;2023-04-21T01:50:14;19.30;;;14.53;;
15412;SDS011;7805;49.554;7.632;2023-04-21T01:52:40;16.57;;;14.27;;
15412;SDS011;7805;49.554;7.632;2023-04-21T01:55:06;17.70;;;14.77;;
15412;SDS011;7805;49.554;7.632;2023-04-21T01:57:32;16.10;;;14.33;;
15412;SDS011;7805;49.554;7.632;2023-04-21T01:59:57;17.63;;;14.03;;
15412;SDS011;7805;49.554;7.632;2023-04-21T02:02:23;16.03;;;14.30;;
15412;SDS011;7805;49.554;7.632;2023-04-21T02:04:48;17.13;;;14.60;;
15412;SDS011;7805;49.554;7.632;2023-04-21T02:07:14;18.37;;;14.13;;
15412;SDS011;7805;49.554;7.632;2023-04-21T02:09:40;17.30;;;13.73;;
15412;SDS011;7805;49.554;7.632;2023-04-21T02:12:05;18.30;;;13.97;;
15412;SDS011;7805;49.554;7.632;2023-04-21T02:14:31;16.53;;;14.10;;
15412;SDS011;7805;49.554;7.632;2023-04-21T02:16:56;17.73;;;14.57;;
15412;SDS011;7805;49.554;7.632;2023-04-21T02:19:22;17.23;;;12.50;;
15412;SDS011;7805;49.554;7.632;2023-04-21T02:21:48;18.50;;;13.20;;
15412;SDS011;7805;49.554;7.632;2023-04-21T02:24:13;15.83;;;12.73;;
15412;SDS011;7805;49.554;7.632;2023-04-21T02:26:39;19.03;;;14.10;;
15412;SDS011;7805;49.554;7.632;2023-04-21T02:29:05;19.57;;;14.43;;
15412;SDS011;7805;49.554;7.632;2023-04-21T02:31:31;16.10;;;13.43;;
15412;SDS011;7805;49.554;7.632;2023-04-21T02:33:56;20.07;;;14.73;;
15412;SDS011;7805;49.554;7.632;2023-04-21T02:36:22;19.50;;;14.73;;
15412;SDS011;7805;49.554;7.632;2023-04-21T02:38:48;17.80;;;14.63;;
15412;SDS011;7805;49.554;7.632;2023-04-21T02:41:15;18.07;;;14.40;;
15412;SDS011;7805;49.554;7.632;2023-04-21T02:43:40;17.80;;;13.33;;
15412;SDS011;7805;49.554;7.632;2023-04-21T02:46:06;16.53;;;13.50;;
15412;SDS011;7805;49.554;7.632;2023-04-21T02:48:32;16.47;;;13.40;;
15412;SDS011;7805;49.554;7.632;2023-04-21T02:50:59;16.23;;;13.43;;
15412;SDS011;7805;49.554;7.632;2023-04-21T02:53:24;18.57;;;14.40;;
15412;SDS011;7805;49.554;7.632;2023-04-21T02:55:50;18.50;;;14.50;;
15412;SDS011;7805;49.554;7.632;2023-04-21T02:58:16;18.07;;;14.83;;
15412;SDS011;7805;49.554;7.632;2023-04-21T03:00:42;21.13;;;15.93;;
15412;SDS011;7805;49.554;7.632;2023-04-21T03:03:07;19.37;;;15.10;;
15412;SDS011;7805;49.554;7.632;2023-04-21T03:05:33;18.37;;;14.10;;
15412;SDS011;7805;49.554;7.632;2023-04-21T03:07:59;17.43;;;14.67;;
15412;SDS011;7805;49.554;7.632;2023-04-21T03:10:24;18.83;;;15.10;;
15412;SDS011;7805;49.554;7.632;2023-04-21T03:12:50;18.70;;;14.90;;
15412;SDS011;7805;49.554;7.632;2023-04-21T03:15:15;20.93;;;16.00;;
15412;SDS011;7805;49.554;7.632;2023-04-21T03:17:41;20.07;;;15.23;;
15412;SDS011;7805;49.554;7.632;2023-04-21T03:20:07;19.33;;;15.47;;
15412;SDS011;7805;49.554;7.632;2023-04-21T03:22:34;19.67;;;14.23;;
15412;SDS011;7805;49.554;7.632;2023-04-21T03:25:00;19.70;;;15.13;;
15412;SDS011;7805;49.554;7.632;2023-04-21T03:27:26;17.20;;;13.73;;
15412;SDS011;7805;49.554;7.632;2023-04-21T03:29:51;19.33;;;14.77;;
15412;SDS011;7805;49.554;7.632;2023-04-21T03:32:17;21.37;;;15.87;;
15412;SDS011;7805;49.554;7.632;2023-04-21T03:34:42;20.40;;;16.73;;
15412;SDS011;7805;49.554;7.632;2023-04-21T03:37:08;18.37;;;15.50;;
15412;SDS011;7805;49.554;7.632;2023-04-21T03:39:33;19.60;;;16.00;;
15412;SDS011;7805;49.554;7.632;2023-04-21T03:41:59;21.10;;;15.53;;
15412;SDS011;7805;49.554;7.632;2023-04-21T03:44:25;18.20;;;14.33;;
15412;SDS011;7805;49.554;7.632;2023-04-21T03:46:52;17.83;;;13.03;;
15412;SDS011;7805;49.554;7.632;2023-04-21T03:49:19;18.00;;;14.00;;
15412;SDS011;7805;49.554;7.632;2023-04-21T03:51:44;20.57;;;14.13;;
15412;SDS011;7805;49.554;7.632;2023-04-21T03:54:10;18.60;;;14.90;;
15412;SDS011;7805;49.554;7.632;2023-04-21T03:56:35;18.53;;;15.30;;
15412;SDS011;7805;49.554;7.632;2023-04-21T03:59:01;19.80;;;15.80;;
15412;SDS011;7805;49.554;7.632;2023-04-21T04:01:27;18.90;;;14.43;;
15412;SDS011;7805;49.554;7.632;2023-04-21T04:03:53;17.53;;;14.30;;
15412;SDS011;7805;49.554;7.632;2023-04-21T04:06:18;19.87;;;13.77;;
15412;SDS011;7805;49.554;7.632;2023-04-21T04:08:44;18.77;;;14.83;;
15412;SDS011;7805;49.554;7.632;2023-04-21T04:11:10;19.30;;;14.37;;
15412;SDS011;7805;49.554;7.632;2023-04-21T04:13:35;18.00;;;14.17;;
15412;SDS011;7805;49.554;7.632;2023-04-21T04:16:01;20.23;;;15.07;;
15412;SDS011;7805;49.554;7.632;2023-04-21T04:18:27;17.93;;;14.30;;
15412;SDS011;7805;49.554;7.632;2023-04-21T04:20:52;17.37;;;14.13;;
15412;SDS011;7805;49.554;7.632;2023-04-21T04:23:18;17.67;;;14.00;;
15412;SDS011;7805;49.554;7.632;2023-04-21T04:25:43;17.50;;;14.33;;
15412;SDS011;7805;49.554;7.632;2023-04-21T04:28:11;18.47;;;14.43;;
15412;SDS011;7805;49.554;7.632;2023-04-21T04:30:37;17.33;;;13.70;;
15412;SDS011;7805;49.554;7.632;2023-04-21T04:33:03;18.23;;;13.47;;
15412;SDS011;7805;49.554;7.632;2023-04-21T04:35:29;18.33;;;13.93;;
15412;SDS011;7805;49.554;7.632;2023-04-21T04:37:55;18.97;;;13.90;;
15412;SDS011;7805;49.554;7.632;2023-04-21T04:40:21;19.10;;;14.80;;
15412;SDS011;7805;49.554;7.632;2023-04-21T04:42:47;19.00;;;14.67;;
15412;SDS011;7805;49.554;7.632;2023-04-21T04:45:13;21.37;;;14.53;;
15412;SDS011;7805;49.554;7.632;2023-04-21T04:47:40;18.93;;;14.33;;
15412;SDS011;7805;49.554;7.632;2023-04-21T04:50:06;20.40;;;14.57;;
15412;SDS011;7805;49.554;7.632;2023-04-21T04:52:32;18.77;;;15.03;;
15412;SDS011;7805;49.554;7.632;2023-04-21T04:54:58;19.30;;;13.90;;
15412;SDS011;7805;49.554;7.632;2023-04-21T04:57:23;17.70;;;14.10;;
15412;SDS011;7805;49.554;7.632;2023-04-21T04:59:53;18.07;;;14.20;;
15412;SDS011;7805;49.554;7.632;2023-04-21T05:02:19;19.07;;;15.43;;
15412;SDS011;7805;49.554;7.632;2023-04-21T05:04:46;20.63;;;15.13;;
15412;SDS011;7805;49.554;7.632;2023-04-21T05:07:12;17.90;;;14.00;;
15412;SDS011;7805;49.554;7.632;2023-04-21T05:09:37;24.63;;;18.53;;
15412;SDS011;7805;49.554;7.632;2023-04-21T05:12:03;21.77;;;16.97;;
15412;SDS011;7805;49.554;7.632;2023-04-21T05:14:29;19.47;;;15.50;;
15412;SDS011;7805;49.554;7.632;2023-04-21T05:16:54;19.83;;;15.67;;
15412;SDS011;7805;49.554;7.632;2023-04-21T05:19:20;19.00;;;14.57;;
15412;SDS011;7805;49.554;7.632;2023-04-21T05:21:45;20.03;;;15.93;;
15412;SDS011;7805;49.554;7.632;2023-04-21T05:24:11;18.67;;;14.40;;
15412;SDS011;7805;49.554;7.632;2023-04-21T05:26:36;18.20;;;14.10;;
15412;SDS011;7805;49.554;7.632;2023-04-21T05:29:02;18.90;;;15.20;;
15412;SDS011;7805;49.554;7.632;2023-04-21T05:31:28;19.27;;;14.73;;
15412;SDS011;7805;49.554;7.632;2023-04-21T05:33:53;18.70;;;14.93;;
15412;SDS011;7805;49.554;7.632;2023-04-21T05:36:19;17.17;;;13.27;;
15412;SDS011;7805;49.554;7.632;2023-04-21T05:38:44;20.00;;;15.93;;
15412;SDS011;7805;49.554;7.632;2023-04-21T05:41:10;18.30;;;14.53;;
15412;SDS011;7805;49.554;7.632;2023-04-21T05:43:36;19.13;;;15.13;;
15412;SDS011;7805;49.554;7.632;2023-04-21T05:46:02;19.30;;;15.23;;
15412;SDS011;7805;49.554;7.632;2023-04-21T05:48:32;19.83;;;15.57;;
15412;SDS011;7805;49.554;7.632;2023-04-21T05:51:06;19.63;;;15.50;;
15412;SDS011;7805;49.554;7.632;2023-04-21T05:53:33;17.20;;;13.90;;
15412;SDS011;7805;49.554;7.632;2023-04-21T05:55:58;17.50;;;14.37;;
15412;SDS011;7805;49.554;7.632;2023-04-21T05:58:24;20.17;;;15.70;;
15412;SDS011;7805;49.554;7.632;2023-04-21T06:00:49;16.80;;;13.73;;
15412;SDS011;7805;49.554;7.632;2023-04-21T06:03:15;22.13;;;16.10;;
15412;SDS011;7805;49.554;7.632;2023-04-21T06:05:40;23.17;;;17.57;;
15412;SDS011;7805;49.554;7.632;2023-04-21T06:08:06;19.63;;;16.93;;
15412;SDS011;7805;49.554;7.632;2023-04-21T06:10:31;20.60;;;16.87;;
15412;SDS011;7805;49.554;7.632;2023-04-21T06:12:57;19.67;;;16.90;;
15412;SDS011;7805;49.554;7.632;2023-04-21T06:15:23;18.87;;;15.80;;
15412;SDS011;7805;49.554;7.632;2023-04-21T06:17:51;21.23;;;16.20;;
15412;SDS011;7805;49.554;7.632;2023-04-21T06:20:19;20.80;;;16.83;;
15412;SDS011;7805;49.554;7.632;2023-04-21T06:22:44;18.93;;;16.57;;
15412;SDS011;7805;49.554;7.632;2023-04-21T06:25:10;25.27;;;17.87;;
15412;SDS011;7805;49.554;7.632;2023-04-21T06:27:36;19.53;;;16.13;;
15412;SDS011;7805;49.554;7.632;2023-04-21T06:30:01;20.77;;;16.20;;
15412;SDS011;7805;49.554;7.632;2023-04-21T06:32:27;23.83;;;17.30;;
15412;SDS011;7805;49.554;7.632;2023-04-21T06:34:52;22.50;;;17.67;;
15412;SDS011;7805;49.554;7.632;2023-04-21T06:37:18;21.37;;;16.40;;
15412;SDS011;7805;49.554;7.632;2023-04-21T06:39:44;20.03;;;16.83;;
15412;SDS011;7805;49.554;7.632;2023-04-21T06:42:09;21.73;;;17.60;;
15412;SDS011;7805;49.554;7.632;2023-04-21T06:44:35;20.90;;;16.37;;
15412;SDS011;7805;49.554;7.632;2023-04-21T06:47:02;21.63;;;17.90;;
15412;SDS011;7805;49.554;7.632;2023-04-21T06:49:27;21.70;;;16.93;;
15412;SDS011;7805;49.554;7.632;2023-04-21T06:51:53;22.37;;;18.33;;
15412;SDS011;7805;49.554;7.632;2023-04-21T06:54:19;21.83;;;17.87;;
15412;SDS011;7805;49.554;7.632;2023-04-21T06:56:44;19.67;;;17.00;;
15412;SDS011;7805;49.554;7.632;2023-04-21T06:59:10;22.47;;;17.57;;
15412;SDS011;7805;49.554;7.632;2023-04-21T07:01:35;23.57;;;17.63;;
15412;SDS011;7805;49.554;7.632;2023-04-21T07:04:01;21.60;;;16.40;;
15412;SDS011;7805;49.554;7.632;2023-04-21T07:06:26;20.93;;;15.93;;
15412;SDS011;7805;49.554;7.632;2023-04-21T07:08:52;22.10;;;17.60;;
15412;SDS011;7805;49.554;7.632;2023-04-21T07:11:18;22.77;;;16.80;;
15412;SDS011;7805;49.554;7.632;2023-04-21T07:13:43;21.13;;;16.93;;
15412;SDS011;7805;49.554;7.632;2023-04-21T07:16:09;20.63;;;17.20;;
15412;SDS011;7805;49.554;7.632;2023-04-21T07:18:34;20.60;;;16.90;;
15412;SDS011;7805;49.554;7.632;2023-04-21T07:21:00;20.27;;;15.33;;
15412;SDS011;7805;49.554;7.632;2023-04-21T07:23:25;21.30;;;15.63;;
15412;SDS011;7805;49.554;7.632;2023-04-21T07:25:51;19.97;;;15.33;;
15412;SDS011;7805;49.554;7.632;2023-04-21T07:28:17;20.20;;;15.77;;
15412;SDS011;7805;49.554;7.632;2023-04-21T07:30:42;20.30;;;16.17;;
15412;SDS011;7805;49.554;7.632;2023-04-21T07:33:08;22.10;;;15.90;;
15412;SDS011;7805;49.554;7.632;2023-04-21T07:35:34;19.60;;;15.20;;
15412;SDS011;7805;49.554;7.632;2023-04-21T07:37:59;19.93;;;15.57;;
15412;SDS011;7805;49.554;7.632;2023-04-21T07:40:25;21.80;;;16.70;;
15412;SDS011;7805;49.554;7.632;2023-04-21T07:42:50;19.30;;;16.03;;
15412;SDS011;7805;49.554;7.632;2023-04-21T07:45:16;21.37;;;16.70;;
15412;SDS011;7805;49.554;7.632;2023-04-21T07:47:41;20.37;;;15.57;;
15412;SDS011;7805;49.554;7.632;2023-04-21T07:50:07;20.03;;;16.03;;
15412;SDS011;7805;49.554;7.632;2023-04-21T07:52:33;20.97;;;16.10;;
15412;SDS011;7805;49.554;7.632;2023-04-21T07:54:59;21.90;;;16.03;;
15412;SDS011;7805;49.554;7.632;2023-04-21T07:57:25;16.77;;;14.77;;
15412;SDS011;7805;49.554;7.632;2023-04-21T07:59:50;19.60;;;16.03;;
15412;SDS011;7805;49.554;7.632;2023-04-21T08:02:16;18.20;;;15.27;;
15412;SDS011;7805;49.554;7.632;2023-04-21T08:04:41;19.60;;;15.20;;
15412;SDS011;7805;49.554;7.632;2023-04-21T08:07:07;17.20;;;14.13;;
15412;SDS011;7805;49.554;7.632;2023-04-21T08:09:33;15.17;;;13.17;;
15412;SDS011;7805;49.554;7.632;2023-04-21T08:11:59;17.07;;;14.07;;
15412;SDS011;7805;49.554;7.632;2023-04-21T08:14:26;14.60;;;12.73;;
15412;SDS011;7805;49.554;7.632;2023-04-21T08:16:52;16.03;;;13.57;;
15412;SDS011;7805;49.554;7.632;2023-04-21T08:19:17;15.47;;;13.63;;
15412;SDS011;7805;49.554;7.632;2023-04-21T08:21:43;15.97;;;13.07;;
15412;SDS011;7805;49.554;7.632;2023-04-21T08:24:09;13.80;;;12.00;;
15412;SDS011;7805;49.554;7.632;2023-04-21T08:26:34;13.63;;;12.33;;
15412;SDS011;7805;49.554;7.632;2023-04-21T08:29:00;13.33;;;11.67;;
15412;SDS011;7805;49.554;7.632;2023-04-21T08:31:25;11.77;;;10.50;;
15412;SDS011;7805;49.554;7.632;2023-04-21T08:33:52;13.27;;;11.87;;
15412;SDS011;7805;49.554;7.632;2023-04-21T08:36:18;14.10;;;12.70;;
15412;SDS011;7805;49.554;7.632;2023-04-21T08:38:44;12.40;;;11.10;;
15412;SDS011;7805;49.554;7.632;2023-04-21T08:41:10;12.57;;;11.27;;
15412;SDS011;7805;49.554;7.632;2023-04-21T08:43:36;12.40;;;11.20;;
15412;SDS011;7805;49.554;7.632;2023-04-21T08:46:05;11.60;;;10.40;;
15412;SDS011;7805;49.554;7.632;2023-04-21T08:48:33;11.07;;;9.97;;
15412;SDS011;7805;49.554;7.632;2023-04-21T08:51:01;11.97;;;10.77;;
15412;SDS011;7805;49.554;7.632;2023-04-21T08:53:27;11.57;;;10.37;;
15412;SDS011;7805;49.554;7.632;2023-04-21T08:55:54;10.73;;;9.67;;
15412;SDS011;7805;49.554;7.632;2023-04-21T08:58:20;12.43;;;10.37;;
15412;SDS011;7805;49.554;7.632;2023-04-21T09:00:47;9.87;;;8.97;;
15412;SDS011;7805;49.554;7.632;2023-04-21T09:03:25;10.27;;;9.23;;
15412;SDS011;7805;49.554;7.632;2023-04-21T09:08:29;9.80;;;8.90;;
15412;SDS011;7805;49.554;7.632;2023-04-21T09:10:55;11.57;;;10.40;;
15412;SDS011;7805;49.554;7.632;2023-04-21T09:13:28;10.20;;;9.17;;
15412;SDS011;7805;49.554;7.632;2023-04-21T09:15:55;9.50;;;8.13;;
15412;SDS011;7805;49.554;7.632;2023-04-21T09:18:21;9.50;;;8.50;;
15412;SDS011;7805;49.554;7.632;2023-04-21T09:20:49;8.83;;;7.93;;
15412;SDS011;7805;49.554;7.632;2023-04-21T09:23:16;8.23;;;7.43;;
15412;SDS011;7805;49.554;7.632;2023-04-21T09:25:44;8.90;;;8.10;;
15412;SDS011;7805;49.554;7.632;2023-04-21T09:28:13;9.97;;;8.50;;
15412;SDS011;7805;49.554;7.632;2023-04-21T09:30:40;9.03;;;7.50;;
15412;SDS011;7805;49.554;7.632;2023-04-21T09:33:07;8.70;;;7.80;;
15412;SDS011;7805;49.554;7.632;2023-04-21T09:35:39;8.13;;;7.43;;
15412;SDS011;7805;49.554;7.632;2023-04-21T09:38:08;7.73;;;7.07;;
15412;SDS011;7805;49.554;7.632;2023-04-21T09:40:35;7.07;;;6.47;;
15412;SDS011;7805;49.554;7.632;2023-04-21T09:43:01;7.00;;;6.37;;
15412;SDS011;7805;49.554;7.632;2023-04-21T09:45:27;7.13;;;6.40;;
15412;SDS011;7805;49.554;7.632;2023-04-21T09:47:55;7.57;;;6.23;;
15412;SDS011;7805;49.554;7.632;2023-04-21T09:50:22;7.50;;;6.80;;
15412;SDS011;7805;49.554;7.632;2023-04-21T09:52:52;7.17;;;6.57;;
15412;SDS011;7805;49.554;7.632;2023-04-21T09:55:21;6.03;;;5.43;;
15412;SDS011;7805;49.554;7.632;2023-04-21T09:57:51;6.90;;;6.20;;
15412;SDS011;7805;49.554;7.632;2023-04-21T10:00:18;5.90;;;5.30;;
15412;SDS011;7805;49.554;7.632;2023-04-21T10:02:47;7.00;;;6.30;;
15412;SDS011;7805;49.554;7.632;2023-04-21T10:05:15;8.90;;;8.00;;
15412;SDS011;7805;49.554;7.632;2023-04-21T10:07:40;6.07;;;5.57;;
15412;SDS011;7805;49.554;7.632;2023-04-21T10:10:12;5.40;;;4.90;;
15412;SDS011;7805;49.554;7.632;2023-04-21T10:12:48;7.87;;;7.07;;
15412;SDS011;7805;49.554;7.632;2023-04-21T10:15:28;6.63;;;6.03;;
15412;SDS011;7805;49.554;7.632;2023-04-21T10:18:16;8.50;;;7.63;;
15412;SDS011;7805;49.554;7.632;2023-04-21T10:21:16;6.53;;;5.70;;
15412;SDS011;7805;49.554;7.632;2023-04-21T10:23:43;7.50;;;6.80;;
15412;SDS011;7805;49.554;7.632;2023-04-21T10:28:57;6.50;;;5.93;;
15412;SDS011;7805;49.554;7.632;2023-04-21T10:34:15;4.93;;;4.43;;
15412;SDS011;7805;49.554;7.632;2023-04-21T10:41:54;4.77;;;4.33;;
15412;SDS011;7805;49.554;7.632;2023-04-21T10:44:22;4.87;;;3.90;;
15412;SDS011;7805;49.554;7.632;2023-04-21T10:46:49;3.37;;;2.97;;
15412;SDS011;7805;49.554;7.632;2023-04-21T10:57:10;2.77;;;2.57;;
15412;SDS011;7805;49.554;7.632;2023-04-21T10:59:38;3.80;;;3.40;;
15412;SDS011;7805;49.554;7.632;2023-04-21T11:02:04;3.20;;;2.97;;
15412;SDS011;7805;49.554;7.632;2023-04-21T11:04:33;2.47;;;2.30;;
15412;SDS011;7805;49.554;7.632;2023-04-21T11:07:12;2.60;;;2.40;;
15412;SDS011;7805;49.554;7.632;2023-04-21T11:09:40;2.40;;;2.20;;
15412;SDS011;7805;49.554;7.632;2023-04-21T11:12:07;3.27;;;2.63;;
15412;SDS011;7805;49.554;7.632;2023-04-21T11:14:38;2.33;;;2.13;;
15412;SDS011;7805;49.554;7.632;2023-04-21T11:17:09;1.60;;;1.50;;
15412;SDS011;7805;49.554;7.632;2023-04-21T11:19:39;2.38;;;1.92;;
15412;SDS011;7805;49.554;7.632;2023-04-21T11:22:05;1.83;;;1.73;;
15412;SDS011;7805;49.554;7.632;2023-04-21T11:24:31;2.67;;;1.75;;
15412;SDS011;7805;49.554;7.632;2023-04-21T11:26:57;1.60;;;1.50;;
15412;SDS011;7805;49.554;7.632;2023-04-21T11:29:25;1.70;;;1.60;;
15412;SDS011;7805;49.554;7.632;2023-04-21T11:31:50;1.25;;;1.25;;
15412;SDS011;7805;49.554;7.632;2023-04-21T11:34:18;1.65;;;1.52;;
15412;SDS011;7805;49.554;7.632;2023-04-21T11:36:45;3.58;;;1.48;;
15412;SDS011;7805;49.554;7.632;2023-04-21T11:39:12;1.23;;;1.23;;
15412;SDS011;7805;49.554;7.632;2023-04-21T11:41:40;4.30;;;3.47;;
15412;SDS011;7805;49.554;7.632;2023-04-21T11:44:08;2.65;;;2.45;;
15412;SDS011;7805;49.554;7.632;2023-04-21T11:46:34;3.25;;;2.50;;
15412;SDS011;7805;49.554;7.632;2023-04-21T11:49:02;1.88;;;1.70;;
15412;SDS011;7805;49.554;7.632;2023-04-21T11:51:32;3.75;;;2.90;;
15412;SDS011;7805;49.554;7.632;2023-04-21T11:53:59;2.65;;;2.45;;
15412;SDS011;7805;49.554;7.632;2023-04-21T11:56:24;1.98;;;1.88;;
15412;SDS011;7805;49.554;7.632;2023-04-21T11:58:50;2.13;;;1.90;;
15412;SDS011;7805;49.554;7.632;2023-04-21T12:01:16;2.63;;;2.42;;
15412;SDS011;7805;49.554;7.632;2023-04-21T12:03:53;3.38;;;3.08;;
15412;SDS011;7805;49.554;7.632;2023-04-21T12:06:23;2.95;;;2.45;;
15412;SDS011;7805;49.554;7.632;2023-04-21T12:09:34;3.13;;;1.90;;
15412;SDS011;7805;49.554;7.632;2023-04-21T12:11:42;8.90;;;5.80;;
15412;SDS011;7805;49.554;7.632;2023-04-21T12:14:28;2.17;;;2.00;;
15412;SDS011;7805;49.554;7.632;2023-04-21T12:16:57;2.30;;;2.10;;
15412;SDS011;7805;49.554;7.632;2023-04-21T12:24:33;2.60;;;2.42;;
15412;SDS011;7805;49.554;7.632;2023-04-21T12:26:59;3.55;;;3.25;;
15412;SDS011;7805;49.554;7.632;2023-04-21T12:29:26;4.45;;;4.07;;
15412;SDS011;7805;49.554;7.632;2023-04-21T12:31:52;5.72;;;5.20;;
15412;SDS011;7805;49.554;7.632;2023-04-21T12:34:17;5.13;;;4.72;;
15412;SDS011;7805;49.554;7.632;2023-04-21T12:36:43;4.55;;;4.15;;
15412;SDS011;7805;49.554;7.632;2023-04-21T12:39:08;6.13;;;5.55;;
15412;SDS011;7805;49.554;7.632;2023-04-21T12:41:34;6.22;;;5.05;;
15412;SDS011;7805;49.554;7.632;2023-04-21T12:44:00;5.03;;;4.63;;
15412;SDS011;7805;49.554;7.632;2023-04-21T12:46:26;5.28;;;4.88;;
15412;SDS011;7805;49.554;7.632;2023-04-21T12:48:52;4.88;;;4.53;;
15412;SDS011;7805;49.554;7.632;2023-04-21T12:51:17;5.10;;;4.70;;
15412;SDS011;7805;49.554;7.632;2023-04-21T12:53:43;5.40;;;5.00;;
15412;SDS011;7805;49.554;7.632;2023-04-21T12:56:09;5.95;;;5.28;;
15412;SDS011;7805;49.554;7.632;2023-04-21T12:58:35;6.03;;;5.53;;
15412;SDS011;7805;49.554;7.632;2023-04-21T13:01:00;5.22;;;4.82;;
15412;SDS011;7805;49.554;7.632;2023-04-21T13:03:26;4.68;;;4.28;;
15412;SDS011;7805;49.554;7.632;2023-04-21T13:05:52;4.80;;;4.40;;
15412;SDS011;7805;49.554;7.632;2023-04-21T13:08:18;4.78;;;4.38;;
15412;SDS011;7805;49.554;7.632;2023-04-21T13:10:44;4.47;;;4.18;;
15412;SDS011;7805;49.554;7.632;2023-04-21T13:13:10;5.80;;;4.68;;
15412;SDS011;7805;49.554;7.632;2023-04-21T13:15:35;5.25;;;4.45;;
15412;SDS011;7805;49.554;7.632;2023-04-21T13:18:01;5.88;;;5.28;;
15412;SDS011;7805;49.554;7.632;2023-04-21T13:20:27;4.75;;;4.35;;
15412;SDS011;7805;49.554;7.632;2023-04-21T13:22:52;5.70;;;5.22;;
15412;SDS011;7805;49.554;7.632;2023-04-21T13:25:18;5.05;;;4.65;;
15412;SDS011;7805;49.554;7.632;2023-04-21T13:27:43;6.40;;;5.43;;
15412;SDS011;7805;49.554;7.632;2023-04-21T13:30:11;9.52;;;8.50;;
15412;SDS011;7805;49.554;7.632;2023-04-21T13:32:38;9.13;;;8.20;;
15412;SDS011;7805;49.554;7.632;2023-04-21T13:35:04;12.25;;;9.45;;
15412;SDS011;7805;49.554;7.632;2023-04-21T13:37:33;11.93;;;10.35;;
15412;SDS011;7805;49.554;7.632;2023-04-21T13:40:00;17.23;;;10.68;;
15412;SDS011;7805;49.554;7.632;2023-04-21T13:42:26;11.35;;;8.85;;
15412;SDS011;7805;49.554;7.632;2023-04-21T13:44:52;9.20;;;8.27;;
15412;SDS011;7805;49.554;7.632;2023-04-21T13:47:17;13.60;;;8.40;;
15412;SDS011;7805;49.554;7.632;2023-04-21T13:49:43;8.95;;;7.68;;
15412;SDS011;7805;49.554;7.632;2023-04-21T13:52:09;11.63;;;9.57;;
15412;SDS011;7805;49.554;7.632;2023-04-21T13:54:35;8.20;;;6.93;;
15412;SDS011;7805;49.554;7.632;2023-04-21T13:57:01;10.15;;;8.38;;
15412;SDS011;7805;49.554;7.632;2023-04-21T13:59:26;9.27;;;8.23;;
15412;SDS011;7805;49.554;7.632;2023-04-21T14:01:52;8.63;;;7.47;;
15412;SDS011;7805;49.554;7.632;2023-04-21T14:04:17;9.82;;;8.60;;
15412;SDS011;7805;49.554;7.632;2023-04-21T14:06:45;8.00;;;7.10;;
15412;SDS011;7805;49.554;7.632;2023-04-21T14:09:10;10.18;;;6.93;;
15412;SDS011;7805;49.554;7.632;2023-04-21T14:11:36;7.88;;;6.85;;
15412;SDS011;7805;49.554;7.632;2023-04-21T14:14:02;7.50;;;6.05;;
15412;SDS011;7805;49.554;7.632;2023-04-21T14:16:27;6.28;;;5.68;;
15412;SDS011;7805;49.554;7.632;2023-04-21T14:18:53;6.32;;;5.45;;
15412;SDS011;7805;49.554;7.632;2023-04-21T14:21:19;6.00;;;5.50;;
15412;SDS011;7805;49.554;7.632;2023-04-21T14:23:44;6.15;;;5.65;;
15412;SDS011;7805;49.554;7.632;2023-04-21T14:26:10;6.97;;;6.38;;
15412;SDS011;7805;49.554;7.632;2023-04-21T14:28:36;9.30;;;6.35;;
15412;SDS011;7805;49.554;7.632;2023-04-21T14:31:01;6.40;;;5.80;;
15412;SDS011;7805;49.554;7.632;2023-04-21T14:33:28;5.75;;;5.28;;
15412;SDS011;7805;49.554;7.632;2023-04-21T14:35:53;6.15;;;5.55;;
15412;SDS011;7805;49.554;7.632;2023-04-21T14:38:20;7.00;;;6.40;;
15412;SDS011;7805;49.554;7.632;2023-04-21T14:40:45;7.32;;;6.57;;
15412;SDS011;7805;49.554;7.632;2023-04-21T14:43:11;7.60;;;6.50;;
15412;SDS011;7805;49.554;7.632;2023-04-21T14:45:37;6.85;;;6.13;;
15412;SDS011;7805;49.554;7.632;2023-04-21T14:48:04;6.70;;;6.15;;
15412;SDS011;7805;49.554;7.632;2023-04-21T14:50:30;7.95;;;7.25;;
15412;SDS011;7805;49.554;7.632;2023-04-21T14:52:57;8.38;;;7.60;;
15412;SDS011;7805;49.554;7.632;2023-04-21T14:55:22;6.57;;;6.00;;
15412;SDS011;7805;49.554;7.632;2023-04-21T14:57:48;7.53;;;6.88;;
15412;SDS011;7805;49.554;7.632;2023-04-21T15:00:15;6.60;;;6.00;;
15412;SDS011;7805;49.554;7.632;2023-04-21T15:02:47;6.57;;;6.03;;
15412;SDS011;7805;49.554;7.632;2023-04-21T15:05:13;6.50;;;6.00;;